URFF

Simferopol International Airport

Simferopol, Ukraine
TAF URFF 212254Z 2200/2224 03006MPS 3100 -SHSN BR BKN005 SCT020CB TEMPO 2200/2206 0500 FZFG OVC002 SCT020CB FM220600 08005MPS 9999 BKN011
Issued Valid From Valid To
Jan-21 @ 22:54 UTC
(an hour ago)
Jan-22 @ 00:00 UTC
(11 minutes ago)
Jan-23 @ 00:00 UTC
(in 24 hours)
Jan-22 @ 00:00 to Jan-22 @ 06:00
TAF URFF 212254Z 2200/2224 03006MPS 3100 -SHSN BR BKN005 SCT020CB
Wind Visibility Clouds Conditions
30° at 12 knots 3,106 meters
  • Broken at 500' AGL
  • Scattered at 2,000' AGL
  • Light Snow
  • Mist
Temporary Jan-22 @ 00:00 to Jan-22 @ 06:00
TEMPO 2200/2206 0500 FZFG OVC002 SCT020CB
Visibility Clouds Conditions
499 meters
  • Overcast at 200' AGL
  • Scattered at 2,000' AGL
  • Freezing
  • Fog
From Jan-22 @ 06:00 to Jan-23 @ 00:00
FM220600 08005MPS 9999 BKN011
Wind Visibility Clouds
80° at 10 knots 10,000+ meters
  • Broken at 1,100' AGL
TAF URFF 212254Z 2200/2224 03006MPS 3100 -SHSN BR BKN005 SCT020CB TEMPO 2200/2206 0500 FZFG OVC002 SCT020CB FM220600 08005MPS 9999 BKN011
Issued Jan-21 @ 22:54 UTC
(an hour ago)
Valid From Jan-22 @ 00:00 UTC
(11 minutes ago)
Valid To Jan-23 @ 00:00 UTC
(in 24 hours)
Jan-22 @ 00:00 - Jan-22 @ 06:00
Wind Visibility
30° at 12 knots 3,106 meters
Clouds
  • Broken at 500' AGL
  • Scattered at 2,000' AGL
Conditions
  • Light Snow
  • Mist
Temporary Jan-22 @ 00:00 - Jan-22 @ 06:00
Clouds
  • Overcast at 200' AGL
  • Scattered at 2,000' AGL
Conditions
  • Freezing
  • Fog
From Jan-22 @ 06:00 - Jan-23 @ 00:00
Wind Visibility
80° at 10 knots 10,000+ meters
Clouds
  • Broken at 1,100' AGL